Grand Cayman, Cayman Islands

9:47 AM EST on August 22, 2014 (GMT -0500)
Cayman Retreat | Change Station
CLOSE
Current Station
Personal Weather Station
Location: George Town,
Elevation: 6 ft
Nearby Weather Stations

Elev 6 ft 19.27 °N, 81.39 °W | Updated 8 seconds ago

Partly Cloudy
Partly Cloudy
88.5 °F
Feels Like 100 °F
N
0.0
Wind Variable Wind from ESE
Gusts 0.4 mph

Today
High -- | Low -- °F
--% Chance of Precip.
Yesterday
High -- | Low -- °F
Precip. -- in
6:08 AM 6:48 PM
Waning Crescent, 8% visible
Pressure 29.98 in
Visibility 6.2 miles
Clouds Few 1800 ft
Heat Index 100 °F
Dew Point 76 °F
Humidity 67%
Rainfall 0.00 in
Snow Depth Not available.
UV 7 out of 12
Pollen Not available.
Air Quality Not available.
Flu Activity Not available.
METAR MWCR 221400Z 12006KT 9999 FEW018 31/26 Q1015

More Conditions Fewer Conditions

Pressure 29.98 in
Visibility 6.2 miles
Clouds Few 1800 ft
Heat Index 100 °F
Dew Point 76 °F
Humidity 67%
Rainfall 0.00 in
Snow Depth Not available.
UV 7 out of 12
Pollen Not available.
Air Quality Not available.
Flu Activity Not available.
METAR MWCR 221400Z 12006KT 9999 FEW018 31/26 Q1015

More Conditions Fewer Conditions

10-Day Weather Forecast

Almanac

Astronomy

Aug. 22, 2014 Rise Set
Actual Time 6:08 AM EST 6:48 PM EST
Civil Twilight 5:45 AM EST 7:10 PM EST
Nautical Twilight 5:19 AM EST 7:37 PM EST
Astronomical Twilight 4:52 AM EST 8:04 PM EST
Moon 3:39 AM EST 4:48 PM EST
Length of Visible Light 13h 25m
Length of Day
12h 40m
Tomorrow will be 1m 0s shorter.
Waning Crescent, 8% of the Moon is Illuminated
Today
Waning Crescent
Aug 25
New
Sep 2
First Quarter
Sep 8
Full
Sep 15
Last Quarter

Yesterday's Extremes

Country Highs Country Lows

Community

WunderPhotos

Upload Photos

1,746,181 photos uploaded!

WunderBlogs® & News

Nearby

Snow Depth

Not available.

Earthquake Activity

City Distance Mag. Time & Date
No recent earthquake activity has been reported nearby.
Minimum magnitude displayed is 2.5.

Coastal Water Temperatures

Place Temperature
No Stations Reporting

Nearby Weather Stations